sensor_id;sensor_type;location;lat;lon;timestamp;P1;durP1;ratioP1;P2;durP2;ratioP2
61017;SDS011;48171;51.550;5.434;2023-04-25T00:01:50;16.15;;;4.07;;
61017;SDS011;48171;51.550;5.434;2023-04-25T00:04:17;19.25;;;4.60;;
61017;SDS011;48171;51.550;5.434;2023-04-25T00:06:43;18.83;;;4.45;;
61017;SDS011;48171;51.550;5.434;2023-04-25T00:09:08;18.80;;;4.43;;
61017;SDS011;48171;51.550;5.434;2023-04-25T00:11:35;14.77;;;3.85;;
61017;SDS011;48171;51.550;5.434;2023-04-25T00:14:01;14.88;;;4.28;;
61017;SDS011;48171;51.550;5.434;2023-04-25T00:16:30;22.05;;;4.63;;
61017;SDS011;48171;51.550;5.434;2023-04-25T00:19:04;20.52;;;4.28;;
61017;SDS011;48171;51.550;5.434;2023-04-25T00:21:32;15.07;;;4.68;;
61017;SDS011;48171;51.550;5.434;2023-04-25T00:23:58;21.17;;;4.00;;
61017;SDS011;48171;51.550;5.434;2023-04-25T00:26:24;13.48;;;3.78;;
61017;SDS011;48171;51.550;5.434;2023-04-25T00:28:53;16.55;;;4.10;;
61017;SDS011;48171;51.550;5.434;2023-04-25T00:31:18;12.35;;;3.40;;
61017;SDS011;48171;51.550;5.434;2023-04-25T00:33:54;28.70;;;5.72;;
61017;SDS011;48171;51.550;5.434;2023-04-25T00:36:49;14.32;;;4.45;;
61017;SDS011;48171;51.550;5.434;2023-04-25T00:39:22;13.93;;;3.80;;
61017;SDS011;48171;51.550;5.434;2023-04-25T00:41:47;14.18;;;3.90;;
61017;SDS011;48171;51.550;5.434;2023-04-25T00:44:13;13.48;;;3.38;;
61017;SDS011;48171;51.550;5.434;2023-04-25T00:46:42;17.08;;;3.40;;
61017;SDS011;48171;51.550;5.434;2023-04-25T00:49:07;18.45;;;4.00;;
61017;SDS011;48171;51.550;5.434;2023-04-25T00:51:40;22.10;;;3.97;;
61017;SDS011;48171;51.550;5.434;2023-04-25T00:54:06;11.18;;;3.67;;
61017;SDS011;48171;51.550;5.434;2023-04-25T00:56:35;16.15;;;4.05;;
61017;SDS011;48171;51.550;5.434;2023-04-25T00:59:03;16.27;;;3.67;;
61017;SDS011;48171;51.550;5.434;2023-04-25T01:01:34;18.27;;;4.00;;
61017;SDS011;48171;51.550;5.434;2023-04-25T01:04:00;16.70;;;3.45;;
61017;SDS011;48171;51.550;5.434;2023-04-25T01:06:31;23.58;;;4.03;;
61017;SDS011;48171;51.550;5.434;2023-04-25T01:09:00;18.02;;;3.92;;
61017;SDS011;48171;51.550;5.434;2023-04-25T01:13:55;11.35;;;3.88;;
61017;SDS011;48171;51.550;5.434;2023-04-25T01:16:21;13.15;;;3.72;;
61017;SDS011;48171;51.550;5.434;2023-04-25T01:18:48;8.88;;;3.42;;
61017;SDS011;48171;51.550;5.434;2023-04-25T01:21:18;14.70;;;3.72;;
61017;SDS011;48171;51.550;5.434;2023-04-25T01:23:44;14.15;;;3.92;;
61017;SDS011;48171;51.550;5.434;2023-04-25T01:26:28;14.30;;;3.33;;
61017;SDS011;48171;51.550;5.434;2023-04-25T01:29:09;13.52;;;3.80;;
61017;SDS011;48171;51.550;5.434;2023-04-25T01:31:35;13.07;;;4.60;;
61017;SDS011;48171;51.550;5.434;2023-04-25T01:34:04;13.02;;;3.95;;
61017;SDS011;48171;51.550;5.434;2023-04-25T01:36:32;15.10;;;4.68;;
61017;SDS011;48171;51.550;5.434;2023-04-25T01:39:01;17.13;;;4.07;;
61017;SDS011;48171;51.550;5.434;2023-04-25T01:41:33;18.52;;;4.20;;
61017;SDS011;48171;51.550;5.434;2023-04-25T01:43:59;14.07;;;4.10;;
61017;SDS011;48171;51.550;5.434;2023-04-25T01:46:28;15.98;;;4.60;;
61017;SDS011;48171;51.550;5.434;2023-04-25T01:48:53;17.75;;;4.63;;
61017;SDS011;48171;51.550;5.434;2023-04-25T01:51:22;17.35;;;4.47;;
61017;SDS011;48171;51.550;5.434;2023-04-25T01:53:50;16.45;;;4.65;;
61017;SDS011;48171;51.550;5.434;2023-04-25T01:56:17;15.02;;;4.05;;
61017;SDS011;48171;51.550;5.434;2023-04-25T01:58:43;20.95;;;4.57;;
61017;SDS011;48171;51.550;5.434;2023-04-25T02:01:09;18.17;;;4.47;;
61017;SDS011;48171;51.550;5.434;2023-04-25T02:03:37;15.95;;;4.07;;
61017;SDS011;48171;51.550;5.434;2023-04-25T02:06:05;20.38;;;4.53;;
61017;SDS011;48171;51.550;5.434;2023-04-25T02:08:33;17.45;;;3.90;;
61017;SDS011;48171;51.550;5.434;2023-04-25T02:11:02;16.35;;;4.13;;
61017;SDS011;48171;51.550;5.434;2023-04-25T02:13:30;18.10;;;4.05;;
61017;SDS011;48171;51.550;5.434;2023-04-25T02:15:57;16.63;;;4.72;;
61017;SDS011;48171;51.550;5.434;2023-04-25T02:18:30;20.55;;;5.05;;
61017;SDS011;48171;51.550;5.434;2023-04-25T02:20:58;19.13;;;5.00;;
61017;SDS011;48171;51.550;5.434;2023-04-25T02:23:24;16.05;;;4.38;;
61017;SDS011;48171;51.550;5.434;2023-04-25T02:25:50;16.83;;;4.00;;
61017;SDS011;48171;51.550;5.434;2023-04-25T02:28:20;20.58;;;4.90;;
61017;SDS011;48171;51.550;5.434;2023-04-25T02:30:46;22.02;;;5.03;;
61017;SDS011;48171;51.550;5.434;2023-04-25T02:33:13;18.73;;;4.80;;
61017;SDS011;48171;51.550;5.434;2023-04-25T02:35:44;23.75;;;4.70;;
61017;SDS011;48171;51.550;5.434;2023-04-25T02:38:15;20.70;;;4.57;;
61017;SDS011;48171;51.550;5.434;2023-04-25T02:40:45;25.33;;;5.78;;
61017;SDS011;48171;51.550;5.434;2023-04-25T02:43:19;23.48;;;5.50;;
61017;SDS011;48171;51.550;5.434;2023-04-25T02:45:48;19.20;;;4.95;;
61017;SDS011;48171;51.550;5.434;2023-04-25T02:48:13;19.92;;;4.68;;
61017;SDS011;48171;51.550;5.434;2023-04-25T02:50:39;19.13;;;5.22;;
61017;SDS011;48171;51.550;5.434;2023-04-25T02:53:07;14.02;;;4.55;;
61017;SDS011;48171;51.550;5.434;2023-04-25T02:55:40;27.17;;;5.70;;
61017;SDS011;48171;51.550;5.434;2023-04-25T02:58:10;20.52;;;6.40;;
61017;SDS011;48171;51.550;5.434;2023-04-25T03:00:40;17.25;;;4.78;;
61017;SDS011;48171;51.550;5.434;2023-04-25T03:03:06;23.83;;;5.18;;
61017;SDS011;48171;51.550;5.434;2023-04-25T03:05:31;16.10;;;4.28;;
61017;SDS011;48171;51.550;5.434;2023-04-25T03:08:06;20.52;;;5.00;;
61017;SDS011;48171;51.550;5.434;2023-04-25T03:13:02;20.58;;;5.40;;
61017;SDS011;48171;51.550;5.434;2023-04-25T03:15:33;15.23;;;4.50;;
61017;SDS011;48171;51.550;5.434;2023-04-25T03:18:01;18.42;;;4.38;;
61017;SDS011;48171;51.550;5.434;2023-04-25T03:20:34;21.52;;;5.15;;
61017;SDS011;48171;51.550;5.434;2023-04-25T03:23:06;17.73;;;4.72;;
61017;SDS011;48171;51.550;5.434;2023-04-25T03:28:03;19.80;;;5.53;;
61017;SDS011;48171;51.550;5.434;2023-04-25T03:30:31;21.77;;;5.05;;
61017;SDS011;48171;51.550;5.434;2023-04-25T03:33:04;19.08;;;4.80;;
61017;SDS011;48171;51.550;5.434;2023-04-25T03:35:33;18.48;;;5.50;;
61017;SDS011;48171;51.550;5.434;2023-04-25T03:37:58;21.35;;;5.40;;
61017;SDS011;48171;51.550;5.434;2023-04-25T03:40:24;20.30;;;4.53;;
61017;SDS011;48171;51.550;5.434;2023-04-25T03:42:52;21.48;;;5.15;;
61017;SDS011;48171;51.550;5.434;2023-04-25T03:45:23;22.45;;;5.50;;
61017;SDS011;48171;51.550;5.434;2023-04-25T03:48:09;21.13;;;4.55;;
61017;SDS011;48171;51.550;5.434;2023-04-25T03:50:37;22.50;;;5.07;;
61017;SDS011;48171;51.550;5.434;2023-04-25T03:53:09;21.75;;;5.07;;
61017;SDS011;48171;51.550;5.434;2023-04-25T03:55:41;18.20;;;4.70;;
61017;SDS011;48171;51.550;5.434;2023-04-25T03:58:09;22.27;;;4.53;;
61017;SDS011;48171;51.550;5.434;2023-04-25T04:00:56;17.10;;;4.55;;
61017;SDS011;48171;51.550;5.434;2023-04-25T04:03:40;16.48;;;5.13;;
61017;SDS011;48171;51.550;5.434;2023-04-25T04:06:13;22.80;;;5.13;;
61017;SDS011;48171;51.550;5.434;2023-04-25T04:08:53;18.83;;;4.68;;
61017;SDS011;48171;51.550;5.434;2023-04-25T04:11:36;12.18;;;3.83;;
61017;SDS011;48171;51.550;5.434;2023-04-25T04:14:18;24.30;;;5.72;;
61017;SDS011;48171;51.550;5.434;2023-04-25T04:16:43;17.00;;;4.60;;
61017;SDS011;48171;51.550;5.434;2023-04-25T04:19:15;19.13;;;4.72;;
61017;SDS011;48171;51.550;5.434;2023-04-25T04:21:41;18.85;;;5.13;;
61017;SDS011;48171;51.550;5.434;2023-04-25T04:24:12;18.40;;;5.05;;
61017;SDS011;48171;51.550;5.434;2023-04-25T04:26:38;18.40;;;5.63;;
61017;SDS011;48171;51.550;5.434;2023-04-25T04:29:03;17.38;;;5.00;;
61017;SDS011;48171;51.550;5.434;2023-04-25T04:31:29;20.75;;;4.40;;
61017;SDS011;48171;51.550;5.434;2023-04-25T04:33:55;21.50;;;5.50;;
61017;SDS011;48171;51.550;5.434;2023-04-25T04:36:20;18.27;;;4.15;;
61017;SDS011;48171;51.550;5.434;2023-04-25T04:38:47;21.10;;;5.00;;
61017;SDS011;48171;51.550;5.434;2023-04-25T04:41:15;14.88;;;4.47;;
61017;SDS011;48171;51.550;5.434;2023-04-25T04:43:41;18.23;;;4.95;;
61017;SDS011;48171;51.550;5.434;2023-04-25T04:46:07;20.17;;;4.68;;
61017;SDS011;48171;51.550;5.434;2023-04-25T04:48:40;21.48;;;4.20;;
61017;SDS011;48171;51.550;5.434;2023-04-25T04:51:08;16.92;;;4.50;;
61017;SDS011;48171;51.550;5.434;2023-04-25T04:53:33;17.65;;;4.30;;
61017;SDS011;48171;51.550;5.434;2023-04-25T04:55:58;15.35;;;4.47;;
61017;SDS011;48171;51.550;5.434;2023-04-25T04:58:24;19.13;;;4.30;;
61017;SDS011;48171;51.550;5.434;2023-04-25T05:00:49;20.92;;;6.07;;
61017;SDS011;48171;51.550;5.434;2023-04-25T05:03:15;13.43;;;3.78;;
61017;SDS011;48171;51.550;5.434;2023-04-25T05:05:41;15.65;;;5.13;;
61017;SDS011;48171;51.550;5.434;2023-04-25T05:08:06;16.83;;;4.25;;
61017;SDS011;48171;51.550;5.434;2023-04-25T05:10:32;23.73;;;5.28;;
61017;SDS011;48171;51.550;5.434;2023-04-25T05:12:57;18.83;;;4.63;;
61017;SDS011;48171;51.550;5.434;2023-04-25T05:15:23;13.38;;;4.80;;
61017;SDS011;48171;51.550;5.434;2023-04-25T05:17:57;18.63;;;4.53;;
61017;SDS011;48171;51.550;5.434;2023-04-25T05:20:23;23.60;;;5.10;;
61017;SDS011;48171;51.550;5.434;2023-04-25T05:22:48;23.55;;;4.97;;
61017;SDS011;48171;51.550;5.434;2023-04-25T05:25:16;22.30;;;5.75;;
61017;SDS011;48171;51.550;5.434;2023-04-25T05:27:50;16.55;;;4.22;;
61017;SDS011;48171;51.550;5.434;2023-04-25T05:30:17;15.48;;;4.25;;
61017;SDS011;48171;51.550;5.434;2023-04-25T05:32:42;20.33;;;4.72;;
61017;SDS011;48171;51.550;5.434;2023-04-25T05:35:08;21.27;;;6.05;;
61017;SDS011;48171;51.550;5.434;2023-04-25T05:37:33;14.88;;;4.78;;
61017;SDS011;48171;51.550;5.434;2023-04-25T05:39:59;22.98;;;6.03;;
61017;SDS011;48171;51.550;5.434;2023-04-25T05:42:24;23.52;;;5.60;;
61017;SDS011;48171;51.550;5.434;2023-04-25T05:44:50;21.30;;;4.90;;
61017;SDS011;48171;51.550;5.434;2023-04-25T05:47:18;18.05;;;4.25;;
61017;SDS011;48171;51.550;5.434;2023-04-25T05:49:43;13.38;;;4.13;;
61017;SDS011;48171;51.550;5.434;2023-04-25T05:52:12;15.85;;;5.05;;
61017;SDS011;48171;51.550;5.434;2023-04-25T05:54:40;25.77;;;4.90;;
61017;SDS011;48171;51.550;5.434;2023-04-25T05:57:07;13.63;;;4.57;;
61017;SDS011;48171;51.550;5.434;2023-04-25T05:59:33;18.67;;;4.55;;
61017;SDS011;48171;51.550;5.434;2023-04-25T06:02:01;14.82;;;4.40;;
61017;SDS011;48171;51.550;5.434;2023-04-25T06:04:31;19.67;;;5.75;;
61017;SDS011;48171;51.550;5.434;2023-04-25T06:06:57;15.23;;;4.38;;
61017;SDS011;48171;51.550;5.434;2023-04-25T06:09:22;15.82;;;4.63;;
61017;SDS011;48171;51.550;5.434;2023-04-25T06:11:49;18.83;;;4.25;;
61017;SDS011;48171;51.550;5.434;2023-04-25T06:14:18;18.15;;;4.35;;
61017;SDS011;48171;51.550;5.434;2023-04-25T06:16:43;15.75;;;5.00;;
61017;SDS011;48171;51.550;5.434;2023-04-25T06:19:08;17.85;;;3.90;;
61017;SDS011;48171;51.550;5.434;2023-04-25T06:21:40;17.10;;;4.20;;
61017;SDS011;48171;51.550;5.434;2023-04-25T06:24:08;22.38;;;4.10;;
61017;SDS011;48171;51.550;5.434;2023-04-25T06:26:36;18.15;;;4.55;;
61017;SDS011;48171;51.550;5.434;2023-04-25T06:29:02;20.15;;;5.45;;
61017;SDS011;48171;51.550;5.434;2023-04-25T06:34:28;14.30;;;4.43;;
61017;SDS011;48171;51.550;5.434;2023-04-25T06:36:53;11.45;;;3.60;;
61017;SDS011;48171;51.550;5.434;2023-04-25T06:39:18;17.92;;;3.42;;
61017;SDS011;48171;51.550;5.434;2023-04-25T06:41:47;21.40;;;4.40;;
61017;SDS011;48171;51.550;5.434;2023-04-25T06:44:12;15.38;;;3.22;;
61017;SDS011;48171;51.550;5.434;2023-04-25T06:49:38;16.08;;;3.25;;
61017;SDS011;48171;51.550;5.434;2023-04-25T06:52:06;19.48;;;4.13;;
61017;SDS011;48171;51.550;5.434;2023-04-25T06:54:34;11.50;;;3.00;;
61017;SDS011;48171;51.550;5.434;2023-04-25T06:57:03;12.38;;;3.08;;
61017;SDS011;48171;51.550;5.434;2023-04-25T06:59:28;8.20;;;2.78;;
61017;SDS011;48171;51.550;5.434;2023-04-25T07:02:02;10.35;;;2.88;;
61017;SDS011;48171;51.550;5.434;2023-04-25T07:04:37;13.98;;;3.50;;
61017;SDS011;48171;51.550;5.434;2023-04-25T07:07:45;11.90;;;3.13;;
61017;SDS011;48171;51.550;5.434;2023-04-25T07:13:55;10.45;;;2.75;;
61017;SDS011;48171;51.550;5.434;2023-04-25T07:23:51;13.23;;;2.10;;
61017;SDS011;48171;51.550;5.434;2023-04-25T07:29:20;14.65;;;3.10;;
61017;SDS011;48171;51.550;5.434;2023-04-25T07:35:11;8.85;;;1.95;;
61017;SDS011;48171;51.550;5.434;2023-04-25T07:37:40;10.55;;;2.65;;
61017;SDS011;48171;51.550;5.434;2023-04-25T07:40:23;15.10;;;2.22;;
61017;SDS011;48171;51.550;5.434;2023-04-25T07:42:51;10.13;;;2.50;;
61017;SDS011;48171;51.550;5.434;2023-04-25T07:45:57;15.10;;;2.50;;
61017;SDS011;48171;51.550;5.434;2023-04-25T07:49:05;12.18;;;2.25;;
61017;SDS011;48171;51.550;5.434;2023-04-25T07:54:46;9.88;;;2.30;;
61017;SDS011;48171;51.550;5.434;2023-04-25T08:00:44;9.73;;;2.40;;
61017;SDS011;48171;51.550;5.434;2023-04-25T08:07:20;13.88;;;2.22;;
61017;SDS011;48171;51.550;5.434;2023-04-25T08:10:17;11.88;;;2.38;;
61017;SDS011;48171;51.550;5.434;2023-04-25T08:12:45;12.55;;;2.85;;
61017;SDS011;48171;51.550;5.434;2023-04-25T08:15:15;9.60;;;2.45;;
61017;SDS011;48171;51.550;5.434;2023-04-25T08:17:57;9.68;;;2.15;;
61017;SDS011;48171;51.550;5.434;2023-04-25T08:21:00;9.43;;;2.50;;
61017;SDS011;48171;51.550;5.434;2023-04-25T08:27:13;6.13;;;2.28;;
61017;SDS011;48171;51.550;5.434;2023-04-25T08:29:44;13.45;;;2.50;;
61017;SDS011;48171;51.550;5.434;2023-04-25T08:39:29;13.88;;;2.63;;
61017;SDS011;48171;51.550;5.434;2023-04-25T08:55:35;10.93;;;2.70;;
61017;SDS011;48171;51.550;5.434;2023-04-25T08:58:38;14.27;;;2.78;;
61017;SDS011;48171;51.550;5.434;2023-04-25T09:01:57;14.68;;;3.10;;
61017;SDS011;48171;51.550;5.434;2023-04-25T09:04:33;12.13;;;2.28;;
61017;SDS011;48171;51.550;5.434;2023-04-25T09:10:07;9.85;;;2.17;;
61017;SDS011;48171;51.550;5.434;2023-04-25T09:12:33;12.50;;;3.28;;
61017;SDS011;48171;51.550;5.434;2023-04-25T09:17:29;11.13;;;2.40;;
61017;SDS011;48171;51.550;5.434;2023-04-25T09:19:54;6.25;;;1.88;;
61017;SDS011;48171;51.550;5.434;2023-04-25T09:22:19;7.65;;;2.55;;
61017;SDS011;48171;51.550;5.434;2023-04-25T09:24:47;8.50;;;1.90;;
61017;SDS011;48171;51.550;5.434;2023-04-25T09:27:18;9.93;;;2.05;;
61017;SDS011;48171;51.550;5.434;2023-04-25T09:29:44;8.55;;;1.92;;
61017;SDS011;48171;51.550;5.434;2023-04-25T09:34:42;12.35;;;2.40;;
61017;SDS011;48171;51.550;5.434;2023-04-25T09:37:09;7.28;;;2.08;;
61017;SDS011;48171;51.550;5.434;2023-04-25T09:39:42;12.38;;;2.45;;
61017;SDS011;48171;51.550;5.434;2023-04-25T09:42:10;12.20;;;2.58;;
61017;SDS011;48171;51.550;5.434;2023-04-25T09:44:35;12.35;;;3.00;;
61017;SDS011;48171;51.550;5.434;2023-04-25T09:47:01;9.32;;;3.30;;
61017;SDS011;48171;51.550;5.434;2023-04-25T09:49:27;10.13;;;3.25;;
61017;SDS011;48171;51.550;5.434;2023-04-25T09:51:58;8.32;;;2.47;;
61017;SDS011;48171;51.550;5.434;2023-04-25T09:54:25;3.90;;;1.70;;
61017;SDS011;48171;51.550;5.434;2023-04-25T09:56:51;6.40;;;2.30;;
61017;SDS011;48171;51.550;5.434;2023-04-25T09:59:21;7.22;;;2.17;;
61017;SDS011;48171;51.550;5.434;2023-04-25T10:01:50;5.10;;;2.05;;
61017;SDS011;48171;51.550;5.434;2023-04-25T10:04:18;9.88;;;2.50;;
61017;SDS011;48171;51.550;5.434;2023-04-25T10:06:48;7.68;;;2.10;;
61017;SDS011;48171;51.550;5.434;2023-04-25T10:09:15;6.43;;;2.40;;
61017;SDS011;48171;51.550;5.434;2023-04-25T10:11:42;5.80;;;1.70;;
61017;SDS011;48171;51.550;5.434;2023-04-25T10:14:09;8.15;;;1.83;;
61017;SDS011;48171;51.550;5.434;2023-04-25T10:16:37;4.15;;;1.90;;
61017;SDS011;48171;51.550;5.434;2023-04-25T10:19:03;9.48;;;2.63;;
61017;SDS011;48171;51.550;5.434;2023-04-25T10:21:29;4.70;;;1.70;;
61017;SDS011;48171;51.550;5.434;2023-04-25T10:23:57;6.35;;;1.77;;
61017;SDS011;48171;51.550;5.434;2023-04-25T10:26:24;12.20;;;2.00;;
61017;SDS011;48171;51.550;5.434;2023-04-25T10:31:31;7.47;;;1.90;;
61017;SDS011;48171;51.550;5.434;2023-04-25T10:33:57;5.13;;;1.65;;
61017;SDS011;48171;51.550;5.434;2023-04-25T10:36:22;7.05;;;1.90;;
61017;SDS011;48171;51.550;5.434;2023-04-25T10:38:49;5.45;;;1.30;;
61017;SDS011;48171;51.550;5.434;2023-04-25T10:41:21;5.43;;;1.75;;
61017;SDS011;48171;51.550;5.434;2023-04-25T10:43:48;10.82;;;1.80;;
61017;SDS011;48171;51.550;5.434;2023-04-25T10:46:15;5.63;;;1.50;;
61017;SDS011;48171;51.550;5.434;2023-04-25T10:48:46;5.10;;;1.42;;
61017;SDS011;48171;51.550;5.434;2023-04-25T10:51:23;7.47;;;1.70;;
61017;SDS011;48171;51.550;5.434;2023-04-25T10:56:22;5.15;;;1.80;;
61017;SDS011;48171;51.550;5.434;2023-04-25T10:58:49;7.18;;;1.83;;
61017;SDS011;48171;51.550;5.434;2023-04-25T11:01:24;10.25;;;2.13;;
61017;SDS011;48171;51.550;5.434;2023-04-25T11:03:59;7.28;;;1.63;;
61017;SDS011;48171;51.550;5.434;2023-04-25T11:09:03;8.98;;;2.10;;
61017;SDS011;48171;51.550;5.434;2023-04-25T11:11:38;6.85;;;1.70;;
61017;SDS011;48171;51.550;5.434;2023-04-25T11:14:03;6.40;;;1.63;;
61017;SDS011;48171;51.550;5.434;2023-04-25T11:16:29;5.72;;;1.83;;
61017;SDS011;48171;51.550;5.434;2023-04-25T11:18:57;8.55;;;1.80;;
61017;SDS011;48171;51.550;5.434;2023-04-25T11:21:25;7.40;;;1.73;;
61017;SDS011;48171;51.550;5.434;2023-04-25T11:26:19;6.85;;;1.83;;
61017;SDS011;48171;51.550;5.434;2023-04-25T11:28:45;4.65;;;1.48;;
61017;SDS011;48171;51.550;5.434;2023-04-25T11:31:11;6.95;;;1.77;;
61017;SDS011;48171;51.550;5.434;2023-04-25T11:33:36;7.38;;;1.63;;
61017;SDS011;48171;51.550;5.434;2023-04-25T11:36:01;5.45;;;1.60;;
61017;SDS011;48171;51.550;5.434;2023-04-25T11:38:27;8.40;;;1.40;;
61017;SDS011;48171;51.550;5.434;2023-04-25T11:40:53;4.97;;;1.55;;
61017;SDS011;48171;51.550;5.434;2023-04-25T11:43:27;2.63;;;1.30;;
61017;SDS011;48171;51.550;5.434;2023-04-25T11:45:52;6.72;;;1.60;;
61017;SDS011;48171;51.550;5.434;2023-04-25T11:48:18;5.05;;;1.60;;
61017;SDS011;48171;51.550;5.434;2023-04-25T11:51:03;5.32;;;1.60;;
61017;SDS011;48171;51.550;5.434;2023-04-25T11:53:32;2.90;;;1.58;;
61017;SDS011;48171;51.550;5.434;2023-04-25T11:55:58;8.60;;;1.85;;
61017;SDS011;48171;51.550;5.434;2023-04-25T11:58:23;7.53;;;1.60;;
61017;SDS011;48171;51.550;5.434;2023-04-25T12:00:49;9.60;;;1.40;;
61017;SDS011;48171;51.550;5.434;2023-04-25T12:03:17;6.78;;;1.50;;
61017;SDS011;48171;51.550;5.434;2023-04-25T12:05:48;5.40;;;1.80;;
61017;SDS011;48171;51.550;5.434;2023-04-25T12:08:15;9.70;;;1.85;;
61017;SDS011;48171;51.550;5.434;2023-04-25T12:10:42;7.97;;;1.60;;
61017;SDS011;48171;51.550;5.434;2023-04-25T12:13:26;3.50;;;1.25;;
61017;SDS011;48171;51.550;5.434;2023-04-25T12:15:56;4.85;;;1.50;;
61017;SDS011;48171;51.550;5.434;2023-04-25T12:18:22;4.88;;;1.45;;
61017;SDS011;48171;51.550;5.434;2023-04-25T12:20:52;6.63;;;1.52;;
61017;SDS011;48171;51.550;5.434;2023-04-25T12:23:24;8.15;;;1.50;;
61017;SDS011;48171;51.550;5.434;2023-04-25T12:25:50;8.35;;;1.17;;
61017;SDS011;48171;51.550;5.434;2023-04-25T12:28:19;2.17;;;1.08;;
61017;SDS011;48171;51.550;5.434;2023-04-25T12:33:30;4.20;;;1.00;;
61017;SDS011;48171;51.550;5.434;2023-04-25T12:35:57;4.07;;;1.25;;
61017;SDS011;48171;51.550;5.434;2023-04-25T12:38:35;9.80;;;1.38;;
61017;SDS011;48171;51.550;5.434;2023-04-25T12:41:13;5.53;;;1.25;;
61017;SDS011;48171;51.550;5.434;2023-04-25T12:43:38;6.35;;;1.27;;
61017;SDS011;48171;51.550;5.434;2023-04-25T12:46:03;5.35;;;1.20;;
61017;SDS011;48171;51.550;5.434;2023-04-25T12:48:29;5.10;;;1.13;;
61017;SDS011;48171;51.550;5.434;2023-04-25T12:50:57;11.80;;;1.50;;
61017;SDS011;48171;51.550;5.434;2023-04-25T12:53:25;7.93;;;1.52;;
61017;SDS011;48171;51.550;5.434;2023-04-25T12:55:50;7.60;;;1.85;;
61017;SDS011;48171;51.550;5.434;2023-04-25T12:58:17;11.90;;;2.00;;
61017;SDS011;48171;51.550;5.434;2023-04-25T13:00:43;8.55;;;1.63;;
61017;SDS011;48171;51.550;5.434;2023-04-25T13:03:10;3.88;;;1.55;;
61017;SDS011;48171;51.550;5.434;2023-04-25T13:05:36;9.35;;;2.20;;
61017;SDS011;48171;51.550;5.434;2023-04-25T13:08:02;10.00;;;1.90;;
61017;SDS011;48171;51.550;5.434;2023-04-25T13:10:29;8.52;;;1.70;;
61017;SDS011;48171;51.550;5.434;2023-04-25T13:12:54;7.45;;;1.92;;
61017;SDS011;48171;51.550;5.434;2023-04-25T13:15:19;4.50;;;1.58;;
61017;SDS011;48171;51.550;5.434;2023-04-25T13:17:45;6.53;;;1.42;;
61017;SDS011;48171;51.550;5.434;2023-04-25T13:20:10;6.38;;;1.48;;
61017;SDS011;48171;51.550;5.434;2023-04-25T13:22:37;5.97;;;1.67;;
61017;SDS011;48171;51.550;5.434;2023-04-25T13:25:04;5.82;;;1.80;;
61017;SDS011;48171;51.550;5.434;2023-04-25T13:27:31;6.50;;;1.40;;
61017;SDS011;48171;51.550;5.434;2023-04-25T13:29:58;9.43;;;1.70;;
61017;SDS011;48171;51.550;5.434;2023-04-25T13:32:24;5.40;;;1.35;;
61017;SDS011;48171;51.550;5.434;2023-04-25T13:34:50;5.85;;;1.60;;
61017;SDS011;48171;51.550;5.434;2023-04-25T13:37:16;8.23;;;1.90;;
61017;SDS011;48171;51.550;5.434;2023-04-25T13:39:44;4.72;;;1.50;;
61017;SDS011;48171;51.550;5.434;2023-04-25T13:42:10;8.10;;;1.77;;
61017;SDS011;48171;51.550;5.434;2023-04-25T13:44:36;5.18;;;1.40;;
61017;SDS011;48171;51.550;5.434;2023-04-25T13:47:07;4.78;;;1.85;;
61017;SDS011;48171;51.550;5.434;2023-04-25T13:49:39;8.35;;;1.85;;
61017;SDS011;48171;51.550;5.434;2023-04-25T13:52:05;9.90;;;1.65;;
61017;SDS011;48171;51.550;5.434;2023-04-25T13:54:31;8.63;;;1.90;;
61017;SDS011;48171;51.550;5.434;2023-04-25T13:56:58;8.45;;;2.03;;
61017;SDS011;48171;51.550;5.434;2023-04-25T13:59:24;6.53;;;1.80;;
61017;SDS011;48171;51.550;5.434;2023-04-25T14:01:53;8.02;;;1.90;;
61017;SDS011;48171;51.550;5.434;2023-04-25T14:04:18;5.20;;;1.50;;
61017;SDS011;48171;51.550;5.434;2023-04-25T14:06:44;6.43;;;1.75;;
61017;SDS011;48171;51.550;5.434;2023-04-25T14:12:23;7.78;;;1.70;;
61017;SDS011;48171;51.550;5.434;2023-04-25T14:14:48;7.78;;;1.90;;
61017;SDS011;48171;51.550;5.434;2023-04-25T14:17:33;4.32;;;1.60;;
61017;SDS011;48171;51.550;5.434;2023-04-25T14:20:14;7.15;;;2.00;;
61017;SDS011;48171;51.550;5.434;2023-04-25T14:22:57;5.70;;;1.45;;
61017;SDS011;48171;51.550;5.434;2023-04-25T14:25:33;5.00;;;1.67;;
61017;SDS011;48171;51.550;5.434;2023-04-25T14:37:44;11.05;;;2.30;;
61017;SDS011;48171;51.550;5.434;2023-04-25T14:40:29;3.55;;;1.67;;
61017;SDS011;48171;51.550;5.434;2023-04-25T14:42:55;9.63;;;2.40;;
61017;SDS011;48171;51.550;5.434;2023-04-25T14:45:20;4.70;;;1.80;;
61017;SDS011;48171;51.550;5.434;2023-04-25T14:47:51;6.00;;;1.98;;
61017;SDS011;48171;51.550;5.434;2023-04-25T14:50:30;9.05;;;2.50;;
61017;SDS011;48171;51.550;5.434;2023-04-25T14:53:11;3.83;;;2.28;;
61017;SDS011;48171;51.550;5.434;2023-04-25T14:59:05;7.90;;;2.10;;
61017;SDS011;48171;51.550;5.434;2023-04-25T15:02:14;8.73;;;2.42;;
61017;SDS011;48171;51.550;5.434;2023-04-25T15:04:49;6.22;;;1.80;;
61017;SDS011;48171;51.550;5.434;2023-04-25T15:10:08;6.22;;;1.55;;
61017;SDS011;48171;51.550;5.434;2023-04-25T15:12:43;7.22;;;1.80;;
61017;SDS011;48171;51.550;5.434;2023-04-25T15:15:09;8.45;;;1.92;;
61017;SDS011;48171;51.550;5.434;2023-04-25T15:17:54;4.63;;;1.63;;
61017;SDS011;48171;51.550;5.434;2023-04-25T15:20:26;5.07;;;1.60;;
61017;SDS011;48171;51.550;5.434;2023-04-25T15:23:04;5.68;;;1.70;;
61017;SDS011;48171;51.550;5.434;2023-04-25T15:25:55;7.20;;;1.50;;
61017;SDS011;48171;51.550;5.434;2023-04-25T15:28:20;8.45;;;2.15;;
61017;SDS011;48171;51.550;5.434;2023-04-25T15:30:46;7.95;;;1.88;;
61017;SDS011;48171;51.550;5.434;2023-04-25T15:33:22;8.85;;;2.33;;
61017;SDS011;48171;51.550;5.434;2023-04-25T15:35:50;7.82;;;2.13;;
61017;SDS011;48171;51.550;5.434;2023-04-25T15:38:15;8.88;;;2.20;;
61017;SDS011;48171;51.550;5.434;2023-04-25T15:40:41;10.27;;;2.15;;
61017;SDS011;48171;51.550;5.434;2023-04-25T15:43:06;9.40;;;2.10;;
61017;SDS011;48171;51.550;5.434;2023-04-25T15:45:44;9.77;;;1.77;;
61017;SDS011;48171;51.550;5.434;2023-04-25T15:48:15;6.97;;;2.15;;
61017;SDS011;48171;51.550;5.434;2023-04-25T15:50:49;6.60;;;1.88;;
61017;SDS011;48171;51.550;5.434;2023-04-25T15:53:20;4.72;;;1.73;;
61017;SDS011;48171;51.550;5.434;2023-04-25T15:55:45;6.20;;;1.90;;
61017;SDS011;48171;51.550;5.434;2023-04-25T15:58:21;9.23;;;1.70;;
61017;SDS011;48171;51.550;5.434;2023-04-25T16:00:47;7.45;;;1.80;;
61017;SDS011;48171;51.550;5.434;2023-04-25T16:03:15;8.88;;;1.83;;
61017;SDS011;48171;51.550;5.434;2023-04-25T16:09:03;5.50;;;1.52;;
61017;SDS011;48171;51.550;5.434;2023-04-25T16:11:28;12.38;;;2.00;;
61017;SDS011;48171;51.550;5.434;2023-04-25T16:14:14;8.85;;;2.15;;
61017;SDS011;48171;51.550;5.434;2023-04-25T16:16:57;5.88;;;1.50;;
61017;SDS011;48171;51.550;5.434;2023-04-25T16:19:33;8.63;;;1.70;;
61017;SDS011;48171;51.550;5.434;2023-04-25T16:22:38;5.78;;;1.77;;
61017;SDS011;48171;51.550;5.434;2023-04-25T16:25:10;5.70;;;1.67;;
61017;SDS011;48171;51.550;5.434;2023-04-25T16:28:02;8.75;;;2.20;;
61017;SDS011;48171;51.550;5.434;2023-04-25T16:30:27;7.60;;;1.80;;
61017;SDS011;48171;51.550;5.434;2023-04-25T16:33:20;5.30;;;1.90;;
61017;SDS011;48171;51.550;5.434;2023-04-25T16:35:58;7.00;;;2.10;;
61017;SDS011;48171;51.550;5.434;2023-04-25T16:38:26;10.60;;;2.50;;
61017;SDS011;48171;51.550;5.434;2023-04-25T16:40:54;8.05;;;1.98;;
61017;SDS011;48171;51.550;5.434;2023-04-25T16:43:22;4.20;;;1.83;;
61017;SDS011;48171;51.550;5.434;2023-04-25T16:45:51;7.60;;;1.85;;
61017;SDS011;48171;51.550;5.434;2023-04-25T16:48:17;9.88;;;2.55;;